createdAt,value
2016-11-05T00:02:18.959Z,995.52
2016-11-05T00:05:36.121Z,995.46
2016-11-05T00:08:52.802Z,995.4
2016-11-05T00:12:09.465Z,995.32
2016-11-05T00:15:26.204Z,995.29
2016-11-05T00:18:43.040Z,995.35
2016-11-05T00:22:00.150Z,995.34
2016-11-05T00:25:16.782Z,995.32
2016-11-05T00:28:33.896Z,995.34
2016-11-05T00:31:50.636Z,995.14
2016-11-05T00:35:07.344Z,995.13
2016-11-05T00:38:24.546Z,995.15
2016-11-05T00:41:41.419Z,995.17
2016-11-05T00:44:58.794Z,995.15
2016-11-05T00:48:16.830Z,995.11
2016-11-05T00:51:33.880Z,995.08
2016-11-05T00:54:50.330Z,994.94
2016-11-05T00:58:07.883Z,994.88
2016-11-05T01:01:24.348Z,994.93
2016-11-05T01:04:41.872Z,994.89
2016-11-05T01:07:58.296Z,994.9
2016-11-05T01:11:15.645Z,994.85
2016-11-05T01:14:32.681Z,994.81
2016-11-05T01:17:49.679Z,994.8
2016-11-05T01:21:06.489Z,994.84
2016-11-05T01:24:23.169Z,994.84
2016-11-05T01:27:40.227Z,994.77
2016-11-05T01:30:56.900Z,994.72
2016-11-05T01:34:13.621Z,994.68
2016-11-05T01:37:31.063Z,994.55
2016-11-05T01:40:48.239Z,994.41
2016-11-05T01:44:05.277Z,994.42
2016-11-05T01:47:22.087Z,994.38
2016-11-05T01:50:39.379Z,994.32
2016-11-05T01:53:56.334Z,994.36
2016-11-05T01:57:13.408Z,994.32
2016-11-05T02:00:29.879Z,994.29
2016-11-05T02:03:47.056Z,994.22
2016-11-05T02:07:03.948Z,994.09
2016-11-05T02:10:21.047Z,994.19
2016-11-05T02:13:37.426Z,994.08
2016-11-05T02:16:54.836Z,994.02
2016-11-05T02:20:11.915Z,994.1
2016-11-05T02:23:28.593Z,994.11
2016-11-05T02:26:44.849Z,994.13
2016-11-05T02:30:01.758Z,994.12
2016-11-05T02:33:18.492Z,994.09
2016-11-05T02:36:35.438Z,993.98
2016-11-05T02:39:52.233Z,993.91
2016-11-05T02:43:09.409Z,993.87
2016-11-05T02:46:26.007Z,993.85
2016-11-05T02:49:43.687Z,993.7
2016-11-05T02:53:00.446Z,993.58
2016-11-05T02:56:17.476Z,993.74
2016-11-05T02:59:33.757Z,993.62
2016-11-05T03:02:51.664Z,993.53
2016-11-05T03:06:08.180Z,993.38
2016-11-05T03:09:25.716Z,993.23
2016-11-05T03:12:42.171Z,993.17
2016-11-05T03:15:59.612Z,993.2
2016-11-05T03:19:16.148Z,993.28
2016-11-05T03:22:33.236Z,993.32
2016-11-05T03:25:49.929Z,993.38
2016-11-05T03:33:07.410Z,993.15
2016-11-05T03:36:24.405Z,993.1
2016-11-05T03:39:40.727Z,993.09
2016-11-05T03:42:57.661Z,993.03
2016-11-05T03:46:14.084Z,993.03
2016-11-05T03:49:31.014Z,993.05
2016-11-05T03:52:47.784Z,993.09
2016-11-05T03:56:04.681Z,993.01
2016-11-05T03:59:20.949Z,993.07
2016-11-05T04:02:38.344Z,993.13
2016-11-05T04:05:54.602Z,993.12
2016-11-05T04:09:12.041Z,993.19
2016-11-05T04:12:28.512Z,993.07
2016-11-05T04:15:45.533Z,993.08
2016-11-05T04:19:01.786Z,993.09
2016-11-05T04:22:18.999Z,993.11
2016-11-05T04:25:36.036Z,993.1
2016-11-05T04:28:53.344Z,993.01
2016-11-05T04:32:09.909Z,992.92
2016-11-05T04:35:26.776Z,992.8
2016-11-05T04:38:44.053Z,992.71
2016-11-05T04:42:00.681Z,992.64
2016-11-05T04:45:17.304Z,992.73
2016-11-05T04:48:34.590Z,992.8
2016-11-05T04:51:51.159Z,992.64
2016-11-05T04:55:08.031Z,992.55
2016-11-05T04:58:24.381Z,992.47
2016-11-05T05:01:41.294Z,992.34
2016-11-05T05:10:12.557Z,992.24
2016-11-05T05:13:29.948Z,992.16
2016-11-05T05:16:46.664Z,992.08
2016-11-05T05:20:03.992Z,992
2016-11-05T05:23:20.748Z,992.12
2016-11-05T05:26:38.703Z,992.3
2016-11-05T05:29:55.486Z,992.4
2016-11-05T05:33:13.036Z,992.31
2016-11-05T05:36:29.685Z,992.23
2016-11-05T05:39:47.023Z,992.05
2016-11-05T05:43:04.494Z,992.09
2016-11-05T05:46:21.782Z,992.01
2016-11-05T05:49:38.478Z,991.62
2016-11-05T05:52:55.369Z,991.68
2016-11-05T05:56:12.710Z,991.83
2016-11-05T05:59:29.677Z,991.92
2016-11-05T06:02:46.634Z,992.03
2016-11-05T06:06:03.527Z,991.84
2016-11-05T06:09:20.516Z,991.81
2016-11-05T06:12:37.887Z,991.88
2016-11-05T06:15:55.150Z,991.87
2016-11-05T06:19:12.724Z,991.86
2016-11-05T06:22:30.176Z,991.72
2016-11-05T06:25:47.471Z,991.79
2016-11-05T06:29:05.243Z,991.86
2016-11-05T06:32:22.379Z,991.77
2016-11-05T06:35:39.592Z,991.71
2016-11-05T06:38:56.856Z,991.68
2016-11-05T06:42:14.170Z,991.53
2016-11-05T06:45:31.318Z,991.42
2016-11-05T06:48:48.575Z,991.52
2016-11-05T06:52:05.643Z,991.5
2016-11-05T06:55:22.477Z,991.56
2016-11-05T06:58:39.435Z,991.57
2016-11-05T07:01:56.781Z,991.62
2016-11-05T07:05:13.968Z,991.44
2016-11-05T07:08:30.537Z,991.53
2016-11-05T07:11:47.690Z,991.33
2016-11-05T07:16:18.194Z,991.33
2016-11-05T07:19:50.573Z,991.28
2016-11-05T07:23:07.040Z,991.35
2016-11-05T07:26:24.355Z,991.21
2016-11-05T07:29:41.188Z,991.24
2016-11-05T07:32:58.657Z,991.23
2016-11-05T07:36:15.664Z,991.27
2016-11-05T07:39:32.843Z,991.19
2016-11-05T07:42:50.906Z,991.17
2016-11-05T07:46:08.209Z,991.14
2016-11-05T07:49:25.684Z,991.1
2016-11-05T07:52:43.409Z,991.09
2016-11-05T07:56:01.236Z,991.04
2016-11-05T07:59:24.650Z,991.06
2016-11-05T08:02:41.937Z,991.03
2016-11-05T08:05:59.316Z,990.98
2016-11-05T08:09:16.391Z,990.98
2016-11-05T08:12:33.928Z,990.97
2016-11-05T08:15:51.071Z,990.96
2016-11-05T08:19:08.083Z,990.86
2016-11-05T08:26:26.827Z,990.68
2016-11-05T08:29:43.680Z,990.63
2016-11-05T08:33:00.800Z,990.59
2016-11-05T08:36:17.678Z,990.54
2016-11-05T08:39:34.874Z,990.51
2016-11-05T08:42:51.469Z,990.42
2016-11-05T08:46:08.954Z,990.41
2016-11-05T08:49:25.899Z,990.32
2016-11-05T08:52:43.320Z,990.3
2016-11-05T08:56:00.296Z,990.24
2016-11-05T08:59:17.380Z,990.17
2016-11-05T09:02:34.266Z,990.11
2016-11-05T09:05:51.469Z,990.12
2016-11-05T09:12:55.471Z,990.16
2016-11-05T09:16:12.287Z,990.1
2016-11-05T09:23:59.466Z,990.15
2016-11-05T09:27:16.539Z,990.11
2016-11-05T09:30:49.821Z,990.08
2016-11-05T09:34:08.433Z,990.01
2016-11-05T09:41:44.101Z,989.93
2016-11-05T09:45:31.087Z,989.89
2016-11-05T09:48:51.000Z,989.85
2016-11-05T09:52:12.119Z,989.82
2016-11-05T09:55:48.202Z,989.88
2016-11-05T09:59:21.558Z,989.83
2016-11-05T10:02:45.119Z,989.73
2016-11-05T10:06:11.369Z,989.65
2016-11-05T10:09:30.493Z,989.65
2016-11-05T10:13:05.751Z,989.55
2016-11-05T10:16:42.742Z,989.55
2016-11-05T10:20:00.920Z,989.58
2016-11-05T10:23:20.582Z,989.54
2016-11-05T10:26:38.867Z,989.56
2016-11-05T10:29:59.211Z,989.56
2016-11-05T10:33:17.746Z,989.57
2016-11-05T10:36:38.402Z,989.51
2016-11-05T10:39:56.285Z,989.52
2016-11-05T10:43:16.223Z,989.46
2016-11-05T10:46:36.718Z,989.45
2016-11-05T10:53:48.247Z,989.41
2016-11-05T10:57:06.824Z,989.38
2016-11-05T11:00:25.348Z,989.35
2016-11-05T11:04:14.188Z,989.32
2016-11-05T11:07:38.007Z,989.23
2016-11-05T11:10:54.928Z,989.2
2016-11-05T11:14:11.304Z,989.14
2016-11-05T11:17:28.633Z,989.07
2016-11-05T11:22:13.489Z,989.03
2016-11-05T11:25:45.665Z,989.05
2016-11-05T11:29:02.922Z,988.99
2016-11-05T11:32:20.219Z,988.89
2016-11-05T11:35:37.693Z,988.81
2016-11-05T11:38:54.819Z,988.78
2016-11-05T11:42:11.763Z,988.72
2016-11-05T11:45:29.119Z,988.64
2016-11-05T11:48:46.219Z,988.66
2016-11-05T11:52:03.311Z,988.69
2016-11-05T12:06:56.240Z,988.7
2016-11-05T12:10:13.873Z,988.69
2016-11-05T12:13:31.416Z,988.7
2016-11-05T12:21:27.829Z,988.7
2016-11-05T12:34:03.033Z,988.66
2016-11-05T12:37:57.756Z,988.59
2016-11-05T12:42:16.891Z,988.58
2016-11-05T12:46:59.328Z,988.53
2016-11-05T13:05:28.736Z,988.38
2016-11-05T13:20:22.085Z,988.19
2016-11-05T13:23:39.716Z,988.16
2016-11-05T13:26:56.741Z,988.14
2016-11-05T13:30:13.805Z,988.06
2016-11-05T13:33:30.701Z,988.16
2016-11-05T13:36:47.778Z,988.25
2016-11-05T13:40:05.072Z,988.33
2016-11-05T13:43:22.094Z,988.38
2016-11-05T13:46:39.545Z,988.42
2016-11-05T13:50:11.337Z,988.43
2016-11-05T14:01:59.783Z,988.36
2016-11-05T14:05:31.849Z,988.31
2016-11-05T14:09:03.346Z,988.34
2016-11-05T14:12:22.349Z,988.46
2016-11-05T14:15:39.139Z,988.45
2016-11-05T14:20:09.971Z,988.31
2016-11-05T14:23:56.183Z,988.22
2016-11-05T14:27:12.953Z,988.24
2016-11-05T14:30:30.280Z,988.34
2016-11-05T14:33:47.747Z,988.45
2016-11-05T14:37:05.361Z,988.54
2016-11-05T14:40:22.089Z,988.58
2016-11-05T14:44:09.030Z,988.63
2016-11-05T14:48:10.013Z,988.65
2016-11-05T14:51:27.625Z,988.66
2016-11-05T14:55:14.563Z,988.6
2016-11-05T14:58:32.911Z,988.74
2016-11-05T15:02:06.469Z,988.83
2016-11-05T15:05:23.376Z,988.76
2016-11-05T15:08:40.675Z,988.72
2016-11-05T15:20:29.072Z,988.5
2016-11-05T15:24:15.941Z,988.58
2016-11-05T15:28:04.756Z,988.59
2016-11-05T15:35:08.112Z,988.56
2016-11-05T15:38:25.062Z,988.61
2016-11-05T15:41:42.311Z,988.83
2016-11-05T15:44:59.306Z,988.99
2016-11-05T15:48:16.737Z,988.99
2016-11-05T15:51:33.488Z,988.86
2016-11-05T15:54:50.874Z,988.8
2016-11-05T15:58:07.539Z,988.59
2016-11-05T16:01:24.207Z,988.57
2016-11-05T16:04:41.833Z,988.66
2016-11-05T16:07:58.736Z,988.66
2016-11-05T16:11:15.563Z,988.68
2016-11-05T16:14:32.449Z,988.75
2016-11-05T16:17:49.445Z,988.6
2016-11-05T16:21:06.341Z,988.66
2016-11-05T16:24:23.445Z,988.71
2016-11-05T16:27:40.436Z,988.78
2016-11-05T16:30:57.383Z,988.75
2016-11-05T16:34:14.753Z,988.69
2016-11-05T16:37:32.051Z,988.74
2016-11-05T16:40:48.836Z,988.82
2016-11-05T16:44:05.845Z,988.72
2016-11-05T16:47:23.067Z,988.82
2016-11-05T16:50:40.082Z,988.82
2016-11-05T16:53:56.529Z,989
2016-11-05T16:57:13.813Z,989.1
2016-11-05T17:00:30.229Z,989.15
2016-11-05T17:03:47.166Z,989.31
2016-11-05T17:07:18.384Z,989.23
2016-11-05T17:10:35.659Z,989.2
2016-11-05T17:13:52.534Z,989.18
2016-11-05T17:17:09.579Z,989.28
2016-11-05T17:20:27.055Z,989.35
2016-11-05T17:23:44.115Z,989.3
2016-11-05T17:27:00.468Z,989.31
2016-11-05T17:30:17.767Z,989.42
2016-11-05T17:33:34.135Z,989.3
2016-11-05T17:36:51.496Z,989.26
2016-11-05T17:40:07.904Z,989.33
2016-11-05T17:43:25.416Z,989.31
2016-11-05T17:46:41.695Z,989.25
2016-11-05T17:49:59.104Z,989.29
2016-11-05T17:53:15.614Z,989.23
2016-11-05T17:56:32.780Z,989.26
2016-11-05T17:59:50.493Z,989.18
2016-11-05T18:03:07.492Z,989.25
2016-11-05T18:06:24.551Z,989.19
2016-11-05T18:09:41.327Z,989.14
2016-11-05T18:12:58.153Z,989.2
2016-11-05T18:16:15.454Z,989.2
2016-11-05T18:19:35.018Z,989.08
2016-11-05T18:22:52.208Z,989.19
2016-11-05T18:26:09.470Z,989.29
2016-11-05T18:29:33.795Z,989.23
2016-11-05T18:32:51.815Z,989.14
2016-11-05T18:36:19.836Z,989.22
2016-11-05T18:39:45.154Z,989.29
2016-11-05T18:43:14.214Z,989.35
2016-11-05T18:46:32.544Z,989.28
2016-11-05T18:49:50.474Z,989.3
2016-11-05T18:53:07.752Z,989.32
2016-11-05T18:56:24.746Z,989.35
2016-11-05T18:59:41.934Z,989.41
2016-11-05T19:02:58.793Z,989.39
2016-11-05T19:06:15.986Z,989.42
2016-11-05T19:09:33.338Z,989.43
2016-11-05T19:12:50.187Z,989.51
2016-11-05T19:16:07.402Z,989.57
2016-11-05T19:23:54.808Z,989.51
2016-11-05T19:27:12.095Z,989.5
2016-11-05T19:30:29.074Z,989.58
2016-11-05T19:33:45.859Z,989.56
2016-11-05T19:37:03.244Z,989.63
2016-11-05T19:40:19.982Z,989.58
2016-11-05T19:43:37.544Z,989.6
2016-11-05T19:46:54.192Z,989.58
2016-11-05T19:53:42.782Z,989.58
2016-11-05T19:56:59.958Z,989.61
2016-11-05T20:00:16.522Z,989.61
2016-11-05T20:03:33.716Z,989.66
2016-11-05T20:06:50.601Z,989.67
2016-11-05T20:10:07.792Z,989.68
2016-11-05T20:13:39.676Z,989.72
2016-11-05T20:16:56.987Z,989.76
2016-11-05T20:20:14.555Z,989.63
2016-11-05T20:23:31.706Z,989.65
2016-11-05T20:26:48.590Z,989.59
2016-11-05T20:30:05.842Z,989.68
2016-11-05T21:07:23.221Z,990.02
2016-11-05T21:12:56.183Z,989.82
2016-11-05T21:14:11.412Z,989.84
2016-11-05T21:15:55.311Z,989.88
2016-11-05T21:17:09.786Z,989.87
2016-11-05T21:18:53.889Z,989.84
2016-11-05T21:20:23.596Z,989.82
2016-11-05T21:21:38.906Z,989.84
2016-11-05T21:22:54.252Z,989.84
2016-11-05T21:24:09.283Z,989.86
2016-11-05T21:25:24.035Z,989.86
2016-11-05T21:26:39.569Z,989.89
2016-11-05T21:28:04.226Z,989.82
2016-11-05T21:29:22.021Z,989.78
2016-11-05T21:30:38.371Z,989.79
2016-11-05T21:31:54.978Z,989.73
2016-11-05T21:33:09.496Z,989.78
2016-11-05T21:34:35.048Z,989.72
2016-11-05T21:35:55.507Z,989.68
2016-11-05T21:37:13.341Z,989.7
2016-11-05T21:38:46.999Z,989.73
2016-11-05T21:40:22.369Z,989.68
2016-11-05T21:41:40.162Z,989.7
2016-11-05T21:42:55.534Z,989.71
2016-11-05T21:44:10.012Z,989.72
2016-11-05T21:45:25.896Z,989.68
2016-11-05T21:48:10.676Z,989.7
2016-11-05T21:49:25.621Z,989.77
2016-11-05T21:50:44.992Z,989.8
2016-11-05T21:52:04.982Z,989.74
2016-11-05T21:53:21.560Z,989.8
2016-11-05T21:54:37.794Z,989.74
2016-11-05T21:55:53.058Z,989.76
2016-11-05T21:57:07.499Z,989.75
2016-11-05T21:58:21.751Z,989.8
2016-11-05T21:59:36.570Z,989.72
2016-11-05T22:00:51.037Z,989.76
2016-11-05T22:02:05.867Z,989.71
2016-11-05T22:03:20.450Z,989.71
2016-11-05T22:04:34.863Z,989.76
2016-11-05T22:05:49.642Z,989.71
2016-11-05T22:07:04.208Z,989.77
2016-11-05T22:08:19.031Z,989.83
2016-11-05T22:09:33.369Z,989.82
2016-11-05T22:10:48.100Z,989.84
2016-11-05T22:12:02.913Z,989.78
2016-11-05T22:13:17.294Z,989.74
2016-11-05T22:14:32.101Z,989.75
2016-11-05T22:15:46.740Z,989.68
2016-11-05T22:17:01.037Z,989.75
2016-11-05T22:18:15.265Z,989.75
2016-11-05T22:19:29.817Z,989.75
2016-11-05T22:20:44.254Z,989.75
2016-11-05T22:21:59.396Z,989.76
2016-11-05T22:23:14.135Z,989.84
2016-11-05T22:24:28.671Z,989.86
2016-11-05T22:25:43.091Z,989.91
2016-11-05T22:26:57.953Z,989.94
2016-11-05T22:28:12.016Z,989.94
2016-11-05T22:29:26.286Z,989.96
2016-11-05T22:30:55.767Z,989.93
2016-11-05T22:32:12.563Z,989.89
2016-11-05T22:33:27.620Z,989.85
2016-11-05T22:34:42.074Z,989.87
2016-11-05T22:35:56.250Z,989.91
2016-11-05T22:37:11.305Z,989.9
2016-11-05T22:38:25.762Z,989.94
2016-11-05T22:39:40.832Z,989.91
2016-11-05T22:40:55.087Z,989.91
2016-11-05T22:42:09.486Z,989.91
2016-11-05T22:43:24.474Z,989.93
2016-11-05T22:44:39.118Z,989.92
2016-11-05T22:45:53.606Z,989.94
2016-11-05T22:47:08.319Z,989.98
2016-11-05T22:48:22.773Z,989.99
2016-11-05T22:49:38.500Z,990
2016-11-05T22:50:53.646Z,990.03
2016-11-05T22:52:09.613Z,989.99
2016-11-05T22:53:23.923Z,990
2016-11-05T22:54:53.596Z,989.95
2016-11-05T22:56:08.395Z,989.99
2016-11-05T23:00:34.876Z,989.98
2016-11-05T23:01:49.509Z,989.9
2016-11-05T23:03:05.394Z,989.96
2016-11-05T23:04:19.887Z,989.97
2016-11-05T23:05:34.862Z,989.95
2016-11-05T23:06:50.496Z,989.93
2016-11-05T23:08:05.061Z,989.85
2016-11-05T23:09:19.739Z,989.81
2016-11-05T23:10:34.317Z,989.82
2016-11-05T23:11:49.857Z,989.85
2016-11-05T23:13:04.462Z,989.82
2016-11-05T23:14:19.196Z,989.82
2016-11-05T23:15:33.909Z,989.83
2016-11-05T23:16:48.682Z,989.91
2016-11-05T23:18:03.146Z,989.86
2016-11-05T23:19:18.285Z,989.9
2016-11-05T23:20:32.488Z,989.88
2016-11-05T23:21:47.435Z,989.93
2016-11-05T23:23:02.149Z,989.9
2016-11-05T23:24:16.840Z,989.88
2016-11-05T23:25:32.001Z,989.84
2016-11-05T23:26:46.658Z,989.77
2016-11-05T23:28:01.181Z,989.74
2016-11-05T23:29:16.933Z,989.74
2016-11-05T23:30:31.421Z,989.76
2016-11-05T23:31:46.663Z,989.75
2016-11-05T23:33:01.200Z,989.77
2016-11-05T23:34:17.796Z,989.81
2016-11-05T23:35:32.229Z,989.83
2016-11-05T23:36:47.174Z,989.82
2016-11-05T23:38:01.572Z,989.85
2016-11-05T23:39:16.545Z,989.83
2016-11-05T23:40:31.738Z,989.78
2016-11-05T23:41:46.590Z,989.73
2016-11-05T23:43:16.501Z,989.67
2016-11-05T23:44:31.507Z,989.65
2016-11-05T23:45:46.636Z,989.66
2016-11-05T23:47:01.354Z,989.65
2016-11-05T23:48:18.066Z,989.59
2016-11-05T23:49:32.596Z,989.59
2016-11-05T23:50:47.189Z,989.57
2016-11-05T23:52:05.713Z,989.64
2016-11-05T23:53:21.739Z,989.62
2016-11-05T23:54:36.638Z,989.64
2016-11-05T23:56:06.782Z,989.65
2016-11-05T23:57:44.073Z,989.63
2016-11-05T23:58:59.888Z,989.62
